Предлагаем Вашему вниманию английскую версию страницы: AUTOTAF.ME 23847 - aviation weather forecast Sytomino

AUTOTAF 23847 - авиапрогноз Сытомино

Сегодня рассвет 01:45 UTC, восход солнца 02:31 UTC,
местный полдень 06:58 UTC, заход солнца 11:25 UTC,
наступление темноты 12:11 UTC.

Краткий прогноз 23847 на 9 часов

AUTOTAF.ME 23847 270800Z 2709/2718 03010G17MPS 9999 BKN007    
  BECMG 2710/2712 02006G14MPS

Детальный прогноз 23847 на 24 часа

AUTOTAF.ME 23847 270800Z 2709/2809 03010G17MPS 9999 BKN007 TXM06/2709Z TNM12/2721Z  
  BECMG 2710/2712 02006G14MPS    
  BECMG 2719/2721 BKN010   
  BECMG 2801/2803 OVC140

Подробный табличный прогноз

Время (UTC) miniAUTOTAF на 3 ч WX FZLVL
M AGL
ICE TURB Т
(°С)
Тd
(°С)
f(%) QNH
(гПа)
WIND/T
06 04010G16MPS 4500 BR BKN006 BR SFC MOD FL10/FL40 MOD SFC/FL20 -5 -7 86 1017 ...
09 03010G17MPS 9999 BKN007 SFC MOD FL10/FL110 MOD SFC/FL20 -6 -8 85 1017 ...
12 02006G14MPS 9999 OVC005 SFC MOD FL10/FL70 MOD SFC/FL20 -8 -9 88 1019 ...
15 02006G13MPS 9999 BKN007 SFC FBL FL10/FL20 -9 -11 89 1020 ...
18 01005G12MPS 9999 BKN007 SFC MOD FL10/FL20 -11 -12 88 1020 ...
21 36004MPS 9999 BKN010 SFC MOD FL10/FL20 -12 -13 87 1020 ...
28.10.2020
00 35005G10MPS 9999 BKN010 SFC MOD FL10/FL20 -11 -13 84 1021 ...
03 35004MPS 9999 OVC140 SFC MOD FL10/FL20 -12 -14 83 1021 ...
06 35004MPS 9999 SCT140 SFC -11 -14 75 1022 ...
09 35004MPS 9999 SKC SFC -10 -14 75 1023 ...
12 35003MPS 9999 SKC SFC -12 -15 78 1025 ...
15 VRB02MPS 9999 SKC SFC -13 -16 78 1025 ...
18 VRB02MPS 9999 SKC SFC -13 -16 76 1026 ...
21 VRB02MPS 9999 OVC234 SFC -12 -16 72 1025 ...
29.10.2020
00 VRB02MPS 9999 OVC136 SFC MOD FL150/FL160 -11 -15 70 1024 ...
03 18004MPS 9999 OVC031 SFC MOD FL50/FL60 -9 -14 69 1020 ...


Широта 61.3°, долгота 71.3°, высота 33 м абс.
Средняя высота рельефа местности 51 м абс.
Прогнозы обновляются четыре раза в сутки: в 02, 08, 14, 20 ч всемирного времени.


Выбрать прогноз по другой модели Сытомино
Онлайн-сводка гроз по Сытомино (для РФ и ближнего зарубежья)
Карта фактических гроз в окрестностях Сытомино
Динамические прогностические карты (ventusky.com)
Прогностическая карта высоты нижней границы облаков по Сытомино (windy.com)
Выбрать другой город

Прогноз предназначен для личного научно-познавательного использования частными лицами
и не предназначен для принятия важных решений и выполнения реальных полётов воздушных судов

При копировании или ином использовании любых материалов данного сайта ссылка на © meteocenter.asia обязательна.

0.99/1.6